Time;durP1;ratioP1;P1;durP2;ratioP2;P2;SDS_P1;SDS_P2;PMS_P1;PMS_P2;Temp;Humidity;BMP_temperature;BMP_pressure;BME280_temperature;BME280_humidity;BME280_pressure;Samples;Min_cycle;Max_cycle;Signal;HPM_P1;HPM_P2
2021/10/12 00:01:42;;;;;;;5.07;1.50;;;10.10;99.90;;;;;;5119587;28;20044;-62
2021/10/12 00:04:08;;;;;;;8.27;1.73;;;10.20;99.90;;;;;;5106862;28;20050;-62
2021/10/12 00:06:34;;;;;;;9.13;1.70;;;10.10;99.90;;;;;;5105732;28;20040;-62
2021/10/12 00:09:00;;;;;;;9.43;1.50;;;10.20;99.90;;;;;;5106263;28;20432;-62
2021/10/12 00:11:26;;;;;;;6.60;1.75;;;10.20;99.90;;;;;;5110654;28;20052;-62
2021/10/12 00:13:52;;;;;;;7.07;1.73;;;10.20;99.90;;;;;;5105504;28;20044;-62
2021/10/12 00:16:18;;;;;;;7.80;1.60;;;10.20;99.90;;;;;;5107870;28;20092;-62
2021/10/12 00:18:44;;;;;;;8.57;2.00;;;10.10;99.90;;;;;;5109838;28;20077;-62
2021/10/12 00:21:12;;;;;;;6.10;1.55;;;10.10;99.90;;;;;;5106660;28;20535;-62
2021/10/12 00:23:39;;;;;;;5.28;1.38;;;10.10;99.90;;;;;;5107369;28;20047;-62
2021/10/12 00:26:05;;;;;;;8.77;1.95;;;10.10;99.90;;;;;;5107703;28;20044;-62
2021/10/12 00:28:31;;;;;;;6.28;1.60;;;10.10;99.90;;;;;;5105840;28;20077;-62
2021/10/12 00:30:58;;;;;;;7.68;1.70;;;10.10;99.90;;;;;;5103986;28;20043;-62
2021/10/12 00:33:24;;;;;;;4.68;1.35;;;10.10;99.90;;;;;;5113077;28;20075;-62
2021/10/12 00:35:50;;;;;;;5.82;1.58;;;10.10;99.90;;;;;;5110798;28;20071;-62
2021/10/12 00:38:16;;;;;;;6.88;1.58;;;10.10;99.90;;;;;;5101113;28;20047;-62
2021/10/12 00:40:42;;;;;;;7.35;1.77;;;10.10;99.90;;;;;;5101522;28;20039;-62
2021/10/12 00:43:08;;;;;;;7.43;1.42;;;10.10;99.90;;;;;;5104645;28;20059;-62
2021/10/12 00:45:36;;;;;;;7.75;1.88;;;10.10;99.90;;;;;;5105208;28;20460;-62
2021/10/12 00:48:07;;;;;;;7.35;1.63;;;10.10;99.90;;;;;;5105255;28;20775;-62
2021/10/12 00:50:35;;;;;;;5.03;1.52;;;10.10;99.90;;;;;;5107587;28;20434;-62
2021/10/12 00:53:02;;;;;;;10.02;1.67;;;10.20;99.90;;;;;;5104005;28;20089;-62
2021/10/12 00:55:29;;;;;;;7.78;1.55;;;10.20;99.90;;;;;;5104650;28;20050;-62
2021/10/12 00:57:55;;;;;;;6.60;1.60;;;10.20;99.90;;;;;;5105494;28;20048;-62
2021/10/12 01:00:22;;;;;;;5.35;1.40;;;10.20;99.90;;;;;;5105499;28;20137;-62
2021/10/12 01:02:48;;;;;;;4.90;1.50;;;10.20;99.90;;;;;;5111129;28;20032;-62
2021/10/12 01:05:15;;;;;;;7.38;1.50;;;10.20;99.90;;;;;;5110740;28;20052;-62
2021/10/12 01:07:41;;;;;;;7.65;1.75;;;10.20;99.90;;;;;;5111766;28;20096;-62
2021/10/12 01:10:09;;;;;;;9.45;1.83;;;10.20;99.90;;;;;;5106084;28;20032;-62
2021/10/12 01:12:38;;;;;;;7.85;1.70;;;10.20;99.90;;;;;;5105161;28;20055;-62
2021/10/12 01:15:09;;;;;;;7.00;1.83;;;10.20;99.90;;;;;;5105164;28;20028;-62
2021/10/12 01:17:36;;;;;;;8.10;1.85;;;10.20;99.90;;;;;;5105226;28;20052;-62
2021/10/12 01:20:07;;;;;;;9.82;1.98;;;10.20;99.90;;;;;;5110213;28;20046;-62
2021/10/12 01:22:33;;;;;;;9.55;1.90;;;10.20;99.90;;;;;;5105631;28;20555;-62
2021/10/12 01:25:01;;;;;;;13.63;1.80;;;10.30;99.90;;;;;;5106391;28;20066;-61
2021/10/12 01:27:27;;;;;;;7.88;1.80;;;10.20;99.90;;;;;;5102469;28;20139;-62
2021/10/12 01:29:52;;;;;;;8.40;1.95;;;10.20;99.90;;;;;;5102744;28;20483;-62
2021/10/12 01:32:18;;;;;;;8.40;1.70;;;10.20;99.90;;;;;;5104697;28;20036;-62
2021/10/12 01:34:44;;;;;;;7.68;2.05;;;10.30;99.90;;;;;;5104142;28;20048;-62
2021/10/12 01:37:10;;;;;;;5.97;1.88;;;10.30;99.90;;;;;;5104557;28;20040;-62
2021/10/12 01:39:36;;;;;;;9.50;2.08;;;10.30;99.90;;;;;;5104316;28;20048;-62
2021/10/12 01:42:02;;;;;;;15.23;2.38;;;10.30;99.90;;;;;;5104425;28;20044;-62
2021/10/12 01:44:28;;;;;;;12.95;2.10;;;10.30;99.90;;;;;;5111428;28;20108;-62
2021/10/12 01:46:54;;;;;;;11.23;1.80;;;10.30;99.90;;;;;;5108510;28;20047;-62
2021/10/12 01:49:20;;;;;;;9.32;1.65;;;10.40;99.90;;;;;;5099648;28;20052;-62
2021/10/12 01:51:46;;;;;;;7.65;1.75;;;10.40;99.90;;;;;;5098255;28;20040;-61
2021/10/12 01:54:20;;;;;;;10.52;1.90;;;10.40;99.90;;;;;;5104218;28;20066;-62
2021/10/12 01:56:48;;;;;;;10.45;1.92;;;10.40;99.90;;;;;;5105163;28;20071;-62
2021/10/12 01:59:14;;;;;;;9.45;1.60;;;10.40;99.90;;;;;;5103503;28;20496;-62
2021/10/12 02:01:40;;;;;;;12.00;2.45;;;10.40;99.90;;;;;;5104569;28;20047;-62
2021/10/12 02:04:06;;;;;;;7.88;2.00;;;10.50;99.90;;;;;;5104704;28;20052;-61
2021/10/12 02:06:33;;;;;;;8.27;1.80;;;10.50;99.90;;;;;;5103414;28;20044;-61
2021/10/12 02:09:00;;;;;;;13.27;2.28;;;10.50;99.90;;;;;;5104689;28;20047;-61
2021/10/12 02:11:26;;;;;;;11.27;2.03;;;10.50;99.90;;;;;;5104659;28;20097;-61
2021/10/12 02:13:52;;;;;;;6.72;2.03;;;10.50;99.90;;;;;;5104026;28;20056;-61
2021/10/12 02:16:17;;;;;;;8.63;1.75;;;10.40;99.90;;;;;;5101184;28;20032;-61
2021/10/12 02:18:43;;;;;;;7.72;1.77;;;10.40;99.90;;;;;;5084676;28;20408;-61
2021/10/12 02:21:09;;;;;;;9.23;2.10;;;10.40;99.90;;;;;;5082858;28;20044;-61
2021/10/12 02:23:35;;;;;;;9.77;1.83;;;10.40;99.90;;;;;;5083994;28;20094;-61
2021/10/12 02:26:01;;;;;;;12.35;1.80;;;10.40;99.90;;;;;;5088270;28;20100;-61
2021/10/12 02:28:27;;;;;;;6.43;1.83;;;10.50;99.90;;;;;;5092996;28;20044;-61
2021/10/12 02:30:52;;;;;;;10.27;1.65;;;10.50;99.90;;;;;;5098898;28;20123;-61
2021/10/12 02:33:18;;;;;;;13.05;1.60;;;10.50;99.90;;;;;;5082810;28;20386;-61
2021/10/12 02:35:44;;;;;;;19.00;2.33;;;10.50;99.90;;;;;;5085149;28;20044;-62
2021/10/12 02:38:10;;;;;;;12.88;1.90;;;10.50;99.90;;;;;;5097100;28;20075;-61
2021/10/12 02:40:36;;;;;;;7.07;1.58;;;10.50;99.90;;;;;;5094284;28;20049;-61
2021/10/12 02:43:02;;;;;;;9.55;1.83;;;10.50;99.90;;;;;;5088240;28;20036;-61
2021/10/12 02:45:28;;;;;;;9.30;1.58;;;10.50;99.90;;;;;;5103228;28;20048;-61
2021/10/12 02:47:53;;;;;;;10.45;1.70;;;10.50;99.90;;;;;;5092259;28;20036;-62
2021/10/12 02:50:19;;;;;;;8.20;1.50;;;10.50;99.90;;;;;;5103954;28;20112;-61
2021/10/12 02:52:45;;;;;;;11.05;1.55;;;10.50;99.90;;;;;;5098408;28;20051;-61
2021/10/12 02:55:11;;;;;;;8.73;1.40;;;10.40;99.90;;;;;;5097975;28;20089;-61
2021/10/12 02:57:36;;;;;;;6.75;1.33;;;10.40;99.90;;;;;;5096749;28;20100;-61
2021/10/12 03:00:05;;;;;;;6.00;1.40;;;10.40;99.90;;;;;;5102281;28;20093;-62
2021/10/12 03:02:31;;;;;;;10.88;1.70;;;10.40;99.90;;;;;;5103608;28;20048;-61
2021/10/12 03:04:56;;;;;;;6.18;1.60;;;10.40;99.90;;;;;;5106593;28;20050;-61
2021/10/12 03:07:22;;;;;;;9.85;2.00;;;10.30;99.90;;;;;;5106998;28;20215;-61
2021/10/12 03:09:48;;;;;;;7.05;1.88;;;10.30;99.90;;;;;;5106153;28;20048;-61
2021/10/12 03:12:13;;;;;;;8.13;1.40;;;10.30;99.90;;;;;;5106468;28;20103;-62
2021/10/12 03:14:42;;;;;;;8.85;1.73;;;10.30;99.90;;;;;;5107085;28;20527;-61
2021/10/12 03:17:08;;;;;;;6.68;1.40;;;10.40;99.90;;;;;;5106745;28;20047;-61
2021/10/12 03:19:34;;;;;;;4.63;1.60;;;10.40;99.90;;;;;;5108014;28;20036;-61
2021/10/12 03:22:07;;;;;;;6.93;1.88;;;10.30;99.90;;;;;;5107407;28;20047;-61
2021/10/12 03:24:33;;;;;;;5.60;1.75;;;10.40;99.90;;;;;;5108102;28;20408;-61
2021/10/12 03:26:59;;;;;;;8.45;1.85;;;10.40;99.90;;;;;;5095544;28;20048;-61
2021/10/12 03:29:24;;;;;;;11.07;1.73;;;10.50;99.90;;;;;;5107415;28;20040;-61
2021/10/12 03:31:50;;;;;;;6.00;1.60;;;10.40;99.90;;;;;;5107480;28;20052;-61
2021/10/12 03:34:16;;;;;;;10.00;1.70;;;10.40;99.90;;;;;;5106475;28;20081;-61
2021/10/12 03:36:41;;;;;;;7.22;1.70;;;10.50;99.90;;;;;;5107790;28;20040;-61
2021/10/12 03:39:07;;;;;;;8.30;2.00;;;10.50;99.90;;;;;;5091368;28;20051;-61
2021/10/12 03:41:33;;;;;;;10.80;1.80;;;10.50;99.90;;;;;;5085719;28;20049;-61
2021/10/12 03:43:59;;;;;;;9.48;1.75;;;10.50;99.90;;;;;;5086053;28;20137;-61
2021/10/12 03:46:25;;;;;;;12.27;2.17;;;10.50;99.90;;;;;;5107769;28;20036;-61
2021/10/12 03:48:50;;;;;;;10.93;2.03;;;10.60;99.90;;;;;;5090850;28;20075;-61
2021/10/12 03:51:16;;;;;;;8.52;1.55;;;10.60;99.90;;;;;;5096095;28;20070;-61
2021/10/12 03:53:42;;;;;;;13.32;2.35;;;10.60;99.90;;;;;;5105296;28;20055;-61
2021/10/12 03:56:07;;;;;;;7.38;1.77;;;10.60;99.90;;;;;;5106546;28;20107;-61
2021/10/12 03:58:33;;;;;;;13.05;1.85;;;10.60;99.90;;;;;;5106186;28;20393;-61
2021/10/12 04:00:59;;;;;;;13.80;1.90;;;10.60;99.90;;;;;;5106283;28;20058;-61
2021/10/12 04:03:25;;;;;;;10.60;1.90;;;10.60;99.90;;;;;;5107489;28;20043;-61
2021/10/12 04:05:50;;;;;;;8.48;2.08;;;10.60;99.90;;;;;;5105599;28;20048;-61
2021/10/12 04:08:16;;;;;;;8.40;2.38;;;10.60;99.90;;;;;;5105878;28;20048;-61
2021/10/12 04:10:42;;;;;;;10.05;1.95;;;10.60;99.90;;;;;;5106717;28;20103;-61
2021/10/12 04:13:08;;;;;;;13.88;2.80;;;10.60;99.90;;;;;;5107474;28;20044;-62
2021/10/12 04:15:34;;;;;;;7.85;1.70;;;10.60;99.90;;;;;;5107352;28;20050;-61
2021/10/12 04:18:00;;;;;;;8.98;1.60;;;10.70;99.90;;;;;;5105744;28;20052;-61
2021/10/12 04:20:27;;;;;;;10.40;1.80;;;10.60;99.90;;;;;;5105488;28;20055;-61
2021/10/12 04:22:55;;;;;;;11.30;1.92;;;10.60;99.90;;;;;;5106832;28;20117;-61
2021/10/12 04:25:21;;;;;;;5.95;2.00;;;10.70;99.90;;;;;;5105880;28;20047;-61
2021/10/12 04:27:49;;;;;;;10.38;1.83;;;10.70;99.90;;;;;;5068771;28;20070;-61
2021/10/12 04:30:15;;;;;;;10.88;2.15;;;10.70;99.90;;;;;;5084920;28;20488;-61
2021/10/12 04:32:41;;;;;;;10.30;2.63;;;10.70;99.90;;;;;;5086256;28;20075;-61
2021/10/12 04:35:07;;;;;;;10.60;2.33;;;10.70;99.90;;;;;;5086198;28;20067;-61
2021/10/12 04:37:32;;;;;;;12.88;2.53;;;10.70;99.90;;;;;;5086730;28;20055;-62
2021/10/12 04:39:59;;;;;;;11.15;1.60;;;10.70;99.90;;;;;;5104771;28;20040;-62
2021/10/12 04:42:24;;;;;;;8.90;1.88;;;10.70;99.90;;;;;;5059887;28;20085;-61
2021/10/12 04:44:53;;;;;;;8.85;2.00;;;10.70;99.90;;;;;;5104501;28;20105;-62
2021/10/12 04:47:20;;;;;;;7.03;1.90;;;10.60;99.90;;;;;;5101608;28;20103;-64
2021/10/12 04:49:47;;;;;;;7.53;1.52;;;10.70;99.90;;;;;;5102689;28;20055;-65
2021/10/12 04:52:13;;;;;;;5.10;1.40;;;10.60;99.90;;;;;;5100106;28;20048;-62
2021/10/12 04:54:39;;;;;;;7.95;1.50;;;10.60;99.90;;;;;;5103965;28;20044;-61
2021/10/12 04:57:05;;;;;;;5.80;1.30;;;10.60;99.90;;;;;;5103758;28;20148;-61
2021/10/12 04:59:31;;;;;;;6.07;1.48;;;10.60;99.90;;;;;;5100313;28;20496;-62
2021/10/12 05:01:56;;;;;;;6.80;1.63;;;10.60;99.90;;;;;;5100237;28;20040;-62
2021/10/12 05:04:22;;;;;;;4.55;1.40;;;10.50;99.90;;;;;;5103437;28;20036;-63
2021/10/12 05:06:48;;;;;;;10.35;1.60;;;10.50;99.90;;;;;;5102202;28;20116;-61
2021/10/12 05:09:13;;;;;;;12.80;2.20;;;10.50;99.90;;;;;;5103898;28;20028;-62
2021/10/12 05:11:39;;;;;;;7.53;2.28;;;10.50;99.90;;;;;;5104051;28;20061;-63
2021/10/12 05:14:05;;;;;;;9.07;1.55;;;10.50;99.90;;;;;;5106811;28;20036;-63
2021/10/12 05:16:32;;;;;;;9.20;2.28;;;10.50;99.90;;;;;;5104452;28;20044;-64
2021/10/12 05:18:59;;;;;;;10.18;1.75;;;10.60;99.90;;;;;;5087861;28;20035;-63
2021/10/12 05:21:27;;;;;;;10.25;1.83;;;10.60;99.90;;;;;;5104635;28;20452;-63
2021/10/12 05:23:53;;;;;;;6.70;1.70;;;10.60;99.90;;;;;;5102284;28;20048;-62
2021/10/12 05:26:19;;;;;;;13.02;1.98;;;10.60;99.90;;;;;;5102360;28;20048;-62
2021/10/12 05:28:45;;;;;;;8.85;2.00;;;10.60;99.90;;;;;;5104625;28;20451;-63
2021/10/12 05:31:11;;;;;;;9.88;1.48;;;10.70;99.90;;;;;;5107392;28;20044;-62
2021/10/12 05:33:37;;;;;;;12.45;2.22;;;10.70;99.90;;;;;;5101455;28;20055;-62
2021/10/12 05:36:03;;;;;;;9.30;1.92;;;10.70;99.90;;;;;;5085638;28;20044;-62
2021/10/12 05:38:29;;;;;;;8.95;1.77;;;10.70;99.90;;;;;;5106619;28;20048;-62
2021/10/12 05:40:56;;;;;;;7.25;1.83;;;10.70;99.90;;;;;;5107272;28;20047;-63
2021/10/12 05:43:22;;;;;;;8.63;2.00;;;10.60;99.90;;;;;;5087106;28;20076;-62
2021/10/12 05:45:49;;;;;;;10.70;2.70;;;10.70;99.90;;;;;;5104551;28;20054;-62
2021/10/12 05:48:16;;;;;;;9.18;2.53;;;10.70;99.90;;;;;;5103984;28;20064;-62
2021/10/12 05:50:43;;;;;;;10.75;1.63;;;10.70;99.90;;;;;;5105650;28;20040;-62
2021/10/12 05:55:56;;;;;;;5.43;1.15;;;10.80;99.90;;;;;;5105785;28;20055;-62
2021/10/12 05:58:29;;;;;;;6.07;1.30;;;10.70;99.90;;;;;;5103896;28;20048;-62
2021/10/12 06:00:56;;;;;;;6.30;1.48;;;10.70;99.90;;;;;;5103048;28;20601;-62
2021/10/12 06:03:21;;;;;;;5.43;1.17;;;10.70;99.90;;;;;;5102114;28;20048;-64
2021/10/12 06:05:48;;;;;;;5.95;1.23;;;10.70;99.90;;;;;;5103622;28;20111;-62
2021/10/12 06:08:14;;;;;;;5.00;1.40;;;10.70;99.90;;;;;;5103626;28;20076;-63
2021/10/12 06:10:40;;;;;;;8.30;1.58;;;10.70;99.90;;;;;;5029262;28;20045;-62
2021/10/12 06:13:10;;;;;;;6.95;1.52;;;10.70;99.90;;;;;;5073160;28;20082;-63
2021/10/12 06:15:37;;;;;;;8.23;1.70;;;10.70;99.90;;;;;;5064613;28;20128;-62
2021/10/12 06:18:03;;;;;;;9.30;1.45;;;10.70;99.90;;;;;;5087949;28;20044;-62
2021/10/12 06:20:28;;;;;;;6.50;1.85;;;10.70;99.90;;;;;;5076360;28;20051;-62
2021/10/12 06:22:54;;;;;;;7.25;1.67;;;10.70;99.90;;;;;;5093392;28;20059;-62
2021/10/12 06:25:20;;;;;;;8.60;2.08;;;10.70;99.90;;;;;;5067641;28;20061;-62
2021/10/12 06:27:46;;;;;;;9.70;1.92;;;10.70;99.90;;;;;;5068330;28;20063;-62
2021/10/12 06:30:12;;;;;;;7.10;1.50;;;10.80;99.90;;;;;;5074305;28;20123;-62
2021/10/12 06:32:38;;;;;;;6.65;1.90;;;10.80;99.90;;;;;;5065820;28;20361;-63
2021/10/12 06:35:07;;;;;;;6.97;1.90;;;10.80;99.90;;;;;;5077612;28;20464;-62
2021/10/12 06:37:33;;;;;;;7.03;1.52;;;10.80;99.90;;;;;;5070881;28;20096;-62
2021/10/12 06:39:59;;;;;;;7.03;1.55;;;10.80;99.90;;;;;;5099465;28;20048;-62
2021/10/12 06:42:26;;;;;;;8.80;1.73;;;10.80;99.90;;;;;;5065071;28;20051;-62
2021/10/12 06:44:52;;;;;;;10.73;1.90;;;10.80;99.90;;;;;;5100711;28;20039;-62
2021/10/12 06:47:17;;;;;;;6.28;1.98;;;10.80;99.90;;;;;;5080327;28;20061;-62
2021/10/12 06:49:43;;;;;;;9.57;2.00;;;10.80;99.90;;;;;;5112858;28;20392;-62
2021/10/12 06:52:09;;;;;;;9.10;2.15;;;10.80;99.90;;;;;;5092889;28;20107;-62
2021/10/12 06:54:35;;;;;;;9.48;2.22;;;10.90;99.90;;;;;;5100375;28;20090;-62
2021/10/12 06:57:02;;;;;;;8.02;1.85;;;10.90;99.90;;;;;;5087319;28;20059;-62
2021/10/12 06:59:28;;;;;;;5.40;1.35;;;10.90;99.90;;;;;;5087917;28;20058;-62
2021/10/12 07:01:54;;;;;;;6.78;1.30;;;11.00;99.90;;;;;;5061742;28;20052;-62
2021/10/12 07:04:21;;;;;;;5.43;1.20;;;11.00;99.90;;;;;;5091125;28;20076;-63
2021/10/12 07:06:47;;;;;;;8.70;1.40;;;11.00;99.90;;;;;;5050634;28;20516;-62
2021/10/12 07:09:17;;;;;;;8.30;1.40;;;11.00;99.90;;;;;;5080451;28;20411;-63
2021/10/12 07:11:43;;;;;;;3.85;1.00;;;11.00;99.90;;;;;;5070885;28;20273;-62
2021/10/12 07:14:10;;;;;;;5.47;1.25;;;11.00;99.90;;;;;;5072323;28;20270;-63
2021/10/12 07:16:36;;;;;;;6.15;1.30;;;11.00;99.90;;;;;;5093808;27;20105;-62
2021/10/12 07:19:01;;;;;;;6.65;0.98;;;11.00;99.90;;;;;;5104860;28;20040;-64
2021/10/12 07:21:27;;;;;;;4.15;1.08;;;10.90;99.90;;;;;;5092336;28;20056;-63
2021/10/12 07:23:53;;;;;;;4.75;0.88;;;10.90;99.90;;;;;;5099060;28;20074;-62
2021/10/12 07:26:19;;;;;;;3.42;0.90;;;11.00;99.90;;;;;;5089456;28;20105;-62
2021/10/12 07:28:45;;;;;;;3.83;0.90;;;10.90;99.90;;;;;;5079981;28;20043;-63
2021/10/12 07:31:10;;;;;;;5.85;0.93;;;11.00;99.90;;;;;;5091148;28;20074;-62
2021/10/12 07:33:36;;;;;;;3.78;0.95;;;11.00;99.90;;;;;;5097224;28;20047;-62
2021/10/12 07:36:03;;;;;;;5.68;1.30;;;11.00;99.90;;;;;;5092563;28;20082;-62
2021/10/12 07:38:29;;;;;;;5.70;1.10;;;11.00;99.90;;;;;;5099169;28;20082;-62
2021/10/12 07:40:55;;;;;;;5.32;1.10;;;11.10;99.90;;;;;;5094564;28;20066;-62
2021/10/12 07:43:21;;;;;;;7.28;1.15;;;11.10;99.90;;;;;;5097557;28;20123;-62
2021/10/12 07:45:48;;;;;;;4.50;0.80;;;11.10;99.90;;;;;;5093262;28;20054;-63
2021/10/12 07:48:15;;;;;;;7.00;0.90;;;11.10;99.90;;;;;;5099568;28;20104;-62
2021/10/12 07:50:41;;;;;;;5.00;1.17;;;11.10;99.90;;;;;;5092840;28;20546;-61
2021/10/12 07:53:07;;;;;;;4.15;1.05;;;11.10;99.90;;;;;;5115947;28;20040;-61
2021/10/12 07:55:37;;;;;;;5.25;1.05;;;11.20;99.90;;;;;;5091934;28;20080;-61
2021/10/12 07:58:02;;;;;;;;;;;11.20;99.90;;;;;;5117047;27;20053;-61
2021/10/12 08:00:31;;;;;;;4.45;1.02;;;11.20;99.90;;;;;;5090596;28;20454;-61
2021/10/12 08:02:57;;;;;;;5.10;1.50;;;11.20;99.90;;;;;;5095599;28;20036;-61
2021/10/12 08:05:23;;;;;;;4.40;0.90;;;11.20;99.90;;;;;;5099418;28;20063;-60
2021/10/12 08:07:50;;;;;;;4.32;1.13;;;11.20;99.90;;;;;;5088240;28;20048;-61
2021/10/12 08:10:16;;;;;;;2.22;0.75;;;11.20;99.90;;;;;;5098515;28;20052;-61
2021/10/12 08:12:44;;;;;;;7.50;1.02;;;11.20;99.90;;;;;;5103800;28;20075;-61
2021/10/12 08:15:11;;;;;;;5.15;1.02;;;11.10;99.90;;;;;;5081681;28;20134;-61
2021/10/12 08:17:37;;;;;;;6.43;1.02;;;11.10;99.90;;;;;;5089573;28;20067;-61
2021/10/12 08:20:04;;;;;;;11.32;1.42;;;11.20;99.90;;;;;;5093903;28;20391;-61
2021/10/12 08:22:29;;;;;;;7.50;1.30;;;11.20;99.90;;;;;;5091074;28;20047;-61
2021/10/12 08:24:55;;;;;;;5.32;1.25;;;11.20;99.90;;;;;;5094367;28;20047;-61
2021/10/12 08:27:21;;;;;;;8.43;1.00;;;11.20;99.90;;;;;;5086839;28;20136;-61
2021/10/12 08:29:47;;;;;;;5.97;1.48;;;11.30;99.90;;;;;;5100518;28;20052;-60
2021/10/12 08:32:13;;;;;;;7.40;1.58;;;11.30;99.90;;;;;;5093836;27;20048;-60
2021/10/12 08:34:39;;;;;;;6.38;1.23;;;11.30;99.90;;;;;;5097827;28;20051;-61
2021/10/12 08:37:04;;;;;;;4.72;0.90;;;11.30;99.90;;;;;;5101800;27;20048;-60
2021/10/12 08:39:31;;;;;;;3.85;1.00;;;11.30;99.90;;;;;;5102236;28;20048;-61
2021/10/12 08:42:10;;;;;;;8.07;1.25;;;11.30;99.90;;;;;;5082448;28;20366;-61
2021/10/12 08:44:57;;;;;;;5.65;1.10;;;11.30;99.90;;;;;;5097473;27;20107;-61
2021/10/12 08:47:24;;;;;;;6.65;1.27;;;11.40;99.90;;;;;;5071222;28;20064;-61
2021/10/12 08:49:50;;;;;;;5.78;1.10;;;11.50;99.90;;;;;;5080728;28;20423;-61
2021/10/12 08:52:16;;;;;;;4.75;1.10;;;11.50;99.90;;;;;;5067662;28;20075;-61
2021/10/12 08:54:42;;;;;;;7.15;1.10;;;11.60;99.90;;;;;;5081708;28;20032;-61
2021/10/12 08:57:08;;;;;;;7.57;1.45;;;11.60;99.90;;;;;;5064797;28;20052;-61
2021/10/12 08:59:34;;;;;;;4.70;1.50;;;11.70;99.90;;;;;;5071676;28;20060;-61
2021/10/12 09:02:02;;;;;;;8.52;1.58;;;11.70;99.90;;;;;;5063344;28;20048;-60
2021/10/12 09:04:37;;;;;;;7.82;1.10;;;11.70;99.90;;;;;;5071872;28;20045;-61
2021/10/12 09:07:03;;;;;;;7.78;1.33;;;11.70;99.90;;;;;;5068757;28;20223;-60
2021/10/12 09:09:34;;;;;;;7.32;1.65;;;11.80;99.90;;;;;;5076776;28;20040;-61
2021/10/12 09:12:01;;;;;;;7.88;1.30;;;11.80;99.90;;;;;;5066297;28;20056;-61
2021/10/12 09:14:26;;;;;;;6.57;1.45;;;11.90;99.90;;;;;;5074688;28;20036;-61
2021/10/12 09:17:03;;;;;;;10.43;1.20;;;11.90;99.90;;;;;;5075663;28;20086;-61
2021/10/12 09:19:33;;;;;;;6.78;1.35;;;12.00;99.90;;;;;;5076688;28;20045;-61
2021/10/12 09:22:04;;;;;;;9.27;1.93;;;12.00;99.90;;;;;;5077696;28;20156;-61
2021/10/12 09:24:39;;;;;;;8.90;1.38;;;12.10;99.90;;;;;;5072932;28;20052;-61
2021/10/12 09:27:08;;;;;;;9.35;1.50;;;12.20;99.90;;;;;;5068951;28;20060;-61
2021/10/12 09:29:39;;;;;;;5.40;1.10;;;12.30;99.90;;;;;;5078606;28;20091;-61
2021/10/12 09:32:06;;;;;;;9.15;1.50;;;12.40;99.90;;;;;;5082738;28;20051;-61
2021/10/12 09:34:32;;;;;;;9.70;1.30;;;12.50;99.90;;;;;;5096670;28;20048;-61
2021/10/12 09:36:59;;;;;;;10.48;1.60;;;12.50;99.90;;;;;;5095667;28;20048;-61
2021/10/12 09:39:33;;;;;;;9.50;1.48;;;12.60;99.90;;;;;;5094264;28;20048;-61
2021/10/12 09:42:05;;;;;;;7.07;1.30;;;12.70;99.90;;;;;;5077639;28;20051;-61
2021/10/12 09:44:32;;;;;;;9.40;2.33;;;12.70;99.90;;;;;;5081126;28;20048;-61
2021/10/12 09:47:14;;;;;;;7.32;1.63;;;12.70;99.90;;;;;;5078689;28;20044;-61
2021/10/12 09:49:41;;;;;;;7.05;1.60;;;12.80;99.90;;;;;;5084006;28;20098;-61
2021/10/12 09:52:10;;;;;;;5.40;1.13;;;12.80;99.90;;;;;;5077533;28;20097;-60
2021/10/12 09:54:41;;;;;;;6.50;1.50;;;12.90;99.90;;;;;;5082892;28;20037;-61
2021/10/12 09:57:07;;;;;;;7.30;1.13;;;13.00;99.90;;;;;;5084233;28;20083;-61
2021/10/12 09:59:34;;;;;;;7.53;1.10;;;13.00;99.90;;;;;;5083291;28;20360;-61
2021/10/12 10:02:01;;;;;;;6.25;1.08;;;12.90;99.90;;;;;;5077404;28;20066;-61
2021/10/12 10:04:29;;;;;;;5.88;1.30;;;12.80;99.90;;;;;;5094049;28;20067;-61
2021/10/12 10:07:06;;;;;;;6.88;1.15;;;12.70;99.90;;;;;;5071472;28;20036;-61
2021/10/12 10:09:36;;;;;;;4.78;1.20;;;12.70;99.90;;;;;;5074214;28;20049;-61
2021/10/12 11:49:12;;;;;;;3.65;0.80;;;14.20;99.90;;;;;;4652985;29;1376844;-61
2021/10/12 11:51:40;;;;;;;5.37;1.20;;;14.30;99.90;;;;;;4905011;29;20175;-62
2021/10/12 11:54:07;;;;;;;6.85;1.50;;;14.40;99.90;;;;;;4903083;29;20051;-63
2021/10/12 11:56:35;;;;;;;4.30;1.17;;;14.40;99.90;;;;;;4939187;29;20063;-62
2021/10/12 11:59:03;;;;;;;3.25;0.80;;;14.50;99.90;;;;;;4930513;29;20051;-63
2021/10/12 12:01:34;;;;;;;8.05;1.35;;;14.50;99.90;;;;;;4961096;28;20136;-62
2021/10/12 12:04:00;;;;;;;6.10;1.00;;;14.70;99.90;;;;;;4933310;29;20082;-63
2021/10/12 12:06:28;;;;;;;4.60;1.10;;;15.00;99.90;;;;;;4931640;28;20158;-63
2021/10/12 12:08:57;;;;;;;4.57;1.52;;;14.90;99.90;;;;;;4911849;29;20052;-63
2021/10/12 12:11:25;;;;;;;3.67;1.10;;;14.60;99.90;;;;;;4923480;29;20206;-63
2021/10/12 12:13:53;;;;;;;5.90;1.88;;;14.30;99.90;;;;;;4922454;29;20056;-62
2021/10/12 12:16:20;;;;;;;5.75;1.17;;;14.00;99.90;;;;;;4918307;29;20067;-63
2021/10/12 12:18:46;;;;;;;5.03;1.50;;;13.90;99.90;;;;;;4907891;29;20056;-62
2021/10/12 12:21:12;;;;;;;2.38;1.00;;;13.80;99.90;;;;;;4907767;29;20083;-63
2021/10/12 12:23:42;;;;;;;3.58;1.30;;;13.70;99.90;;;;;;4908041;29;20072;-63
2021/10/12 12:26:13;;;;;;;6.88;1.30;;;13.70;99.90;;;;;;4900026;29;20055;-62
2021/10/12 12:28:40;;;;;;;4.05;1.27;;;13.70;99.90;;;;;;4909987;29;20112;-63
2021/10/12 12:31:25;;;;;;;5.13;1.05;;;13.60;99.90;;;;;;4907161;29;20094;-63
2021/10/12 12:33:54;;;;;;;6.07;1.58;;;13.70;99.90;;;;;;4894156;29;20041;-62
2021/10/12 12:36:31;;;;;;;4.97;1.13;;;13.70;99.90;;;;;;4895927;29;20092;-62
2021/10/12 12:39:06;;;;;;;6.80;1.92;;;13.60;99.90;;;;;;4926174;29;20313;-63
2021/10/12 12:41:42;;;;;;;6.13;1.15;;;13.70;99.90;;;;;;4911317;29;20052;-63
2021/10/12 12:44:08;;;;;;;5.70;1.58;;;14.00;99.90;;;;;;4894482;29;20066;-63
2021/10/12 12:46:35;;;;;;;7.85;1.40;;;14.30;99.90;;;;;;4907297;29;20091;-63
2021/10/12 12:49:13;;;;;;;7.55;1.40;;;14.60;99.90;;;;;;4906883;29;20061;-63
2021/10/12 12:51:46;;;;;;;8.25;1.58;;;14.70;99.90;;;;;;4910294;29;20405;-63
2021/10/12 12:54:43;;;;;;;7.47;1.80;;;14.80;99.90;;;;;;4896759;29;20412;-63
2021/10/12 12:57:20;;;;;;;8.52;1.80;;;14.80;99.90;;;;;;4910259;29;20072;-63
2021/10/12 13:00:04;;;;;;;5.82;1.70;;;14.60;99.90;;;;;;4915108;29;20102;-63
2021/10/12 13:02:29;;;;;;;6.47;1.25;;;14.30;99.90;;;;;;4906468;29;20071;-63
2021/10/12 13:04:55;;;;;;;4.50;1.58;;;14.70;99.90;;;;;;4885390;29;20049;-63
2021/10/12 13:07:21;;;;;;;4.90;1.20;;;15.30;99.90;;;;;;4907972;29;20095;-63
2021/10/12 13:09:48;;;;;;;6.22;1.42;;;16.10;99.90;;;;;;4914410;29;20060;-63
2021/10/12 13:12:17;;;;;;;5.82;1.63;;;16.30;99.90;;;;;;4908243;29;20053;-63
2021/10/12 13:14:49;;;;;;;7.63;1.30;;;16.80;99.90;;;;;;4891604;29;20603;-63
2021/10/12 13:17:22;;;;;;;4.72;1.60;;;15.90;99.90;;;;;;4935540;29;20052;-62
2021/10/12 13:19:49;;;;;;;4.75;1.13;;;15.60;99.90;;;;;;4894055;29;20059;-61
2021/10/12 13:22:15;;;;;;;4.65;1.30;;;15.20;99.90;;;;;;4912099;29;20495;-61
2021/10/12 13:24:42;;;;;;;9.05;1.75;;;15.30;99.90;;;;;;4902524;29;20061;-61
2021/10/12 13:27:08;;;;;;;6.70;1.45;;;16.20;99.90;;;;;;4904855;29;20542;-61
2021/10/12 13:29:33;;;;;;;6.20;1.45;;;16.80;99.90;;;;;;4900050;29;20052;-61
2021/10/12 13:32:00;;;;;;;3.92;1.30;;;17.10;99.90;;;;;;4919915;29;20203;-61
2021/10/12 13:34:30;;;;;;;5.53;1.40;;;18.00;99.90;;;;;;4904407;29;20053;-61
2021/10/12 13:36:56;;;;;;;7.82;1.67;;;18.40;99.90;;;;;;4912587;29;20039;-61
2021/10/12 13:39:22;;;;;;;6.80;1.40;;;18.80;99.90;;;;;;4923213;29;20063;-61
2021/10/12 13:41:50;;;;;;;7.60;1.70;;;19.00;99.90;;;;;;4920464;29;20052;-61
2021/10/12 13:44:19;;;;;;;5.10;1.50;;;19.00;99.90;;;;;;4900956;29;20064;-61
2021/10/12 13:46:45;;;;;;;7.22;1.50;;;19.20;99.80;;;;;;4905740;29;20593;-61
2021/10/12 13:49:11;;;;;;;4.15;0.90;;;18.70;99.90;;;;;;4906536;29;20186;-61
2021/10/12 13:51:38;;;;;;;5.28;1.20;;;17.10;99.90;;;;;;4927073;29;20064;-61
2021/10/12 13:54:03;;;;;;;3.13;0.90;;;15.20;99.90;;;;;;4908388;29;20075;-61
2021/10/12 13:56:29;;;;;;;2.67;0.90;;;14.60;99.90;;;;;;4909875;29;20578;-61
2021/10/12 13:58:55;;;;;;;3.28;0.90;;;13.70;99.90;;;;;;4916469;29;20045;-61
2021/10/12 14:01:20;;;;;;;3.30;0.90;;;13.10;99.90;;;;;;4915398;29;20123;-62
2021/10/12 14:03:47;;;;;;;3.38;1.20;;;13.10;99.90;;;;;;4929721;29;20088;-61
2021/10/12 14:06:13;;;;;;;2.92;0.90;;;12.90;99.90;;;;;;4911458;29;20090;-61
2021/10/12 14:08:39;;;;;;;5.35;1.15;;;12.90;99.90;;;;;;4922492;29;20057;-61
2021/10/12 14:11:04;;;;;;;3.85;1.10;;;13.30;99.90;;;;;;4912012;29;20048;-61
2021/10/12 14:13:31;;;;;;;8.90;1.70;;;14.20;99.90;;;;;;4894111;29;20060;-64
2021/10/12 14:15:57;;;;;;;3.45;1.10;;;15.10;99.90;;;;;;4881688;29;20052;-63
2021/10/12 14:18:24;;;;;;;6.15;1.38;;;15.60;99.90;;;;;;4923187;29;20084;-62
2021/10/12 14:20:52;;;;;;;3.20;1.00;;;16.50;99.90;;;;;;4896769;29;20056;-62
2021/10/12 14:23:19;;;;;;;4.18;1.00;;;17.40;99.90;;;;;;4926302;29;20059;-62
2021/10/12 14:25:46;;;;;;;2.83;1.08;;;17.90;99.90;;;;;;4901678;29;20053;-62